sensor_id;sensor_type;location;lat;lon;timestamp;pressure;altitude;pressure_sealevel;temperature;humidity
76331;BME280;65148;51.912;15.570;2023-02-15T00:08:26;103233.08;;;0.24;92.11
76331;BME280;65148;51.912;15.570;2023-02-15T00:23:54;103218.75;;;0.07;92.13
76331;BME280;65148;51.912;15.570;2023-02-15T00:38:55;103212.16;;;0.02;92.08
76331;BME280;65148;51.912;15.570;2023-02-15T00:53:56;103205.86;;;-0.15;92.47
76331;BME280;65148;51.912;15.570;2023-02-15T01:08:57;103190.00;;;-0.09;91.81
76331;BME280;65148;51.912;15.570;2023-02-15T01:23:58;103184.05;;;-0.20;92.00
76331;BME280;65148;51.912;15.570;2023-02-15T01:39:15;103169.08;;;-0.31;92.41
76331;BME280;65148;51.912;15.570;2023-02-15T01:54:25;103134.20;;;-0.21;93.50
76331;BME280;65148;51.912;15.570;2023-02-15T02:09:29;103115.99;;;-0.18;93.92
76331;BME280;65148;51.912;15.570;2023-02-15T02:24:40;103091.06;;;-0.18;95.20
76331;BME280;65148;51.912;15.570;2023-02-15T02:55:16;103063.41;;;-0.01;95.90
76331;BME280;65148;51.912;15.570;2023-02-15T03:10:21;103051.34;;;0.03;95.45
76331;BME280;65148;51.912;15.570;2023-02-15T03:25:42;103044.40;;;-0.16;94.25
76331;BME280;65148;51.912;15.570;2023-02-15T03:40:45;103040.16;;;-0.26;93.77
76331;BME280;65148;51.912;15.570;2023-02-15T03:56:00;103046.09;;;-0.41;93.38
76331;BME280;65148;51.912;15.570;2023-02-15T04:11:23;103042.48;;;-0.57;93.58
76331;BME280;65148;51.912;15.570;2023-02-15T04:26:24;103040.99;;;-0.52;93.32
76331;BME280;65148;51.912;15.570;2023-02-15T04:41:25;103033.62;;;-0.58;92.73
76331;BME280;65148;51.912;15.570;2023-02-15T04:56:26;103019.80;;;-0.71;92.13
76331;BME280;65148;51.912;15.570;2023-02-15T05:11:52;103018.02;;;-0.88;92.15
76331;BME280;65148;51.912;15.570;2023-02-15T05:26:53;103012.28;;;-0.93;91.46
76331;BME280;65148;51.912;15.570;2023-02-15T05:42:05;102991.67;;;-1.01;90.81
76331;BME280;65148;51.912;15.570;2023-02-15T05:57:06;103000.30;;;-1.07;91.24
76331;BME280;65148;51.912;15.570;2023-02-15T06:12:22;103002.55;;;-1.20;90.35
76331;BME280;65148;51.912;15.570;2023-02-15T06:27:23;103013.13;;;-1.28;90.03
76331;BME280;65148;51.912;15.570;2023-02-15T06:42:24;102997.64;;;-1.25;90.33
76331;BME280;65148;51.912;15.570;2023-02-15T06:57:25;102984.74;;;-1.12;90.68
76331;BME280;65148;51.912;15.570;2023-02-15T07:12:26;102969.20;;;-0.90;91.66
76331;BME280;65148;51.912;15.570;2023-02-15T07:27:57;102947.02;;;-0.57;95.02
76331;BME280;65148;51.912;15.570;2023-02-15T07:42:58;102925.85;;;0.00;97.69
76331;BME280;65148;51.912;15.570;2023-02-15T07:57:59;102923.24;;;0.57;98.76
76331;BME280;65148;51.912;15.570;2023-02-15T08:13:01;102904.10;;;1.17;99.00
76331;BME280;65148;51.912;15.570;2023-02-15T08:28:23;102890.16;;;1.68;99.63
76331;BME280;65148;51.912;15.570;2023-02-15T08:43:24;102885.22;;;2.56;97.37
76331;BME280;65148;51.912;15.570;2023-02-15T08:58:25;102866.75;;;3.06;93.65
76331;BME280;65148;51.912;15.570;2023-02-15T09:13:26;102851.95;;;3.75;92.81
76331;BME280;65148;51.912;15.570;2023-02-15T09:28:54;102851.48;;;4.29;88.47
76331;BME280;65148;51.912;15.570;2023-02-15T10:45:21;102785.55;;;7.46;73.28
76331;BME280;65148;51.912;15.570;2023-02-15T11:00:47;102763.61;;;8.17;69.65
76331;BME280;65148;51.912;15.570;2023-02-15T11:15:54;102747.34;;;9.81;63.16
76331;BME280;65148;51.912;15.570;2023-02-15T11:31:02;102741.86;;;10.92;59.11
76331;BME280;65148;51.912;15.570;2023-02-15T11:46:20;102723.52;;;12.35;54.12
76331;BME280;65148;51.912;15.570;2023-02-15T12:16:43;102686.41;;;13.75;49.49
76331;BME280;65148;51.912;15.570;2023-02-15T12:32:01;102672.90;;;13.63;47.62
76331;BME280;65148;51.912;15.570;2023-02-15T12:47:05;102664.59;;;13.80;46.68
76331;BME280;65148;51.912;15.570;2023-02-15T13:02:15;102650.37;;;13.83;47.71
76331;BME280;65148;51.912;15.570;2023-02-15T13:17:42;102624.04;;;13.45;47.85
76331;BME280;65148;51.912;15.570;2023-02-15T13:32:45;102606.29;;;13.47;48.84
76331;BME280;65148;51.912;15.570;2023-02-15T14:18:24;102609.07;;;12.77;51.03
76331;BME280;65148;51.912;15.570;2023-02-15T14:33:53;102593.21;;;12.52;52.19
76331;BME280;65148;51.912;15.570;2023-02-15T14:49:14;102585.39;;;12.39;51.54
76331;BME280;65148;51.912;15.570;2023-02-15T15:04:09;102570.25;;;12.10;53.74
76331;BME280;65148;51.912;15.570;2023-02-15T15:49:56;102543.27;;;10.39;60.32
76331;BME280;65148;51.912;15.570;2023-02-15T16:05:12;102535.06;;;9.41;64.29
76331;BME280;65148;51.912;15.570;2023-02-15T16:20:20;102530.65;;;8.57;65.57
76331;BME280;65148;51.912;15.570;2023-02-15T16:35:22;102528.25;;;7.76;68.11
76331;BME280;65148;51.912;15.570;2023-02-15T16:50:31;102509.39;;;6.88;70.56
76331;BME280;65148;51.912;15.570;2023-02-15T17:05:49;102499.20;;;5.87;74.77
76331;BME280;65148;51.912;15.570;2023-02-15T17:20:54;102497.64;;;5.47;76.08
76331;BME280;65148;51.912;15.570;2023-02-15T17:36:07;102493.70;;;5.03;78.03
76331;BME280;65148;51.912;15.570;2023-02-15T17:51:30;102498.27;;;5.03;79.73
76331;BME280;65148;51.912;15.570;2023-02-15T18:06:32;102505.73;;;5.21;77.00
76331;BME280;65148;51.912;15.570;2023-02-15T18:21:46;102488.07;;;4.85;76.55
76331;BME280;65148;51.912;15.570;2023-02-15T18:37:21;102470.22;;;4.71;76.56
76331;BME280;65148;51.912;15.570;2023-02-15T18:52:25;102481.59;;;4.60;76.08
76331;BME280;65148;51.912;15.570;2023-02-15T19:07:28;102492.97;;;4.49;76.17
76331;BME280;65148;51.912;15.570;2023-02-15T19:22:58;102477.91;;;4.13;76.27
76331;BME280;65148;51.912;15.570;2023-02-15T19:38:04;102459.34;;;3.49;76.90
76331;BME280;65148;51.912;15.570;2023-02-15T20:08:42;102458.12;;;2.32;80.41
76331;BME280;65148;51.912;15.570;2023-02-15T20:23:44;102433.08;;;1.96;80.85
76331;BME280;65148;51.912;15.570;2023-02-15T20:38:46;102429.06;;;1.70;82.66
76331;BME280;65148;51.912;15.570;2023-02-15T20:53:47;102410.27;;;1.56;82.70
76331;BME280;65148;51.912;15.570;2023-02-15T21:09:14;102404.26;;;1.24;83.63
76331;BME280;65148;51.912;15.570;2023-02-15T21:24:22;102397.80;;;1.19;85.05
76331;BME280;65148;51.912;15.570;2023-02-15T21:39:25;102387.70;;;1.06;84.85
76331;BME280;65148;51.912;15.570;2023-02-15T21:54:28;102385.34;;;0.88;85.32
76331;BME280;65148;51.912;15.570;2023-02-15T22:09:44;102371.17;;;0.65;86.21
76331;BME280;65148;51.912;15.570;2023-02-15T22:24:45;102364.58;;;0.53;86.46
76331;BME280;65148;51.912;15.570;2023-02-15T22:39:47;102358.01;;;0.55;90.46
76331;BME280;65148;51.912;15.570;2023-02-15T22:54:48;102363.27;;;0.86;87.19
76331;BME280;65148;51.912;15.570;2023-02-15T23:10:16;102363.01;;;0.58;87.26
76331;BME280;65148;51.912;15.570;2023-02-15T23:25:23;102370.38;;;0.56;87.14
76331;BME280;65148;51.912;15.570;2023-02-15T23:40:27;102370.03;;;0.59;87.53
76331;BME280;65148;51.912;15.570;2023-02-15T23:56:00;102373.98;;;0.49;87.05
